sensor_id;sensor_type;location;lat;lon;timestamp;pressure;altitude;pressure_sealevel;temperature;humidity
66273;BME280;58450;52.150;4.466;2022-07-12T00:00:24;102426.31;;;17.42;100.00
66273;BME280;58450;52.150;4.466;2022-07-12T00:02:51;102431.97;;;17.41;100.00
66273;BME280;58450;52.150;4.466;2022-07-12T00:05:19;102427.75;;;17.38;100.00
66273;BME280;58450;52.150;4.466;2022-07-12T00:07:47;102422.69;;;17.35;100.00
66273;BME280;58450;52.150;4.466;2022-07-12T00:10:14;102424.75;;;17.33;100.00
66273;BME280;58450;52.150;4.466;2022-07-12T00:12:43;102433.69;;;17.27;100.00
66273;BME280;58450;52.150;4.466;2022-07-12T00:15:11;102436.41;;;17.27;100.00
66273;BME280;58450;52.150;4.466;2022-07-12T00:17:38;102427.41;;;17.26;100.00
66273;BME280;58450;52.150;4.466;2022-07-12T00:20:06;102433.03;;;17.25;100.00
66273;BME280;58450;52.150;4.466;2022-07-12T00:22:34;102437.28;;;17.27;100.00
66273;BME280;58450;52.150;4.466;2022-07-12T00:25:02;102435.75;;;17.25;100.00
66273;BME280;58450;52.150;4.466;2022-07-12T00:27:30;102429.50;;;17.24;100.00
66273;BME280;58450;52.150;4.466;2022-07-12T00:29:59;102433.25;;;17.23;100.00
66273;BME280;58450;52.150;4.466;2022-07-12T00:32:27;102437.22;;;17.21;100.00
66273;BME280;58450;52.150;4.466;2022-07-12T00:34:54;102426.34;;;17.21;100.00
66273;BME280;58450;52.150;4.466;2022-07-12T00:37:22;102434.50;;;17.21;100.00
66273;BME280;58450;52.150;4.466;2022-07-12T00:39:50;102426.34;;;17.21;100.00
66273;BME280;58450;52.150;4.466;2022-07-12T00:42:17;102432.59;;;17.21;100.00
66273;BME280;58450;52.150;4.466;2022-07-12T00:44:45;102432.59;;;17.21;100.00
66273;BME280;58450;52.150;4.466;2022-07-12T00:47:22;102435.53;;;17.20;100.00
66273;BME280;58450;52.150;4.466;2022-07-12T00:49:58;102425.84;;;17.17;100.00
66273;BME280;58450;52.150;4.466;2022-07-12T00:52:26;102424.56;;;17.13;100.00
66273;BME280;58450;52.150;4.466;2022-07-12T00:54:53;102425.97;;;17.09;100.00
66273;BME280;58450;52.150;4.466;2022-07-12T00:57:21;102418.56;;;17.03;100.00
66273;BME280;58450;52.150;4.466;2022-07-12T00:59:49;102407.25;;;16.99;100.00
66273;BME280;58450;52.150;4.466;2022-07-12T01:02:17;102415.75;;;16.96;100.00
66273;BME280;58450;52.150;4.466;2022-07-12T01:04:46;102419.50;;;16.95;100.00
66273;BME280;58450;52.150;4.466;2022-07-12T01:07:14;102410.31;;;16.96;100.00
66273;BME280;58450;52.150;4.466;2022-07-12T01:09:42;102414.91;;;16.95;100.00
66273;BME280;58450;52.150;4.466;2022-07-12T01:12:10;102402.72;;;16.91;100.00
66273;BME280;58450;52.150;4.466;2022-07-12T01:14:38;102405.00;;;16.88;100.00
66273;BME280;58450;52.150;4.466;2022-07-12T01:17:08;102395.53;;;16.83;100.00
66273;BME280;58450;52.150;4.466;2022-07-12T01:19:38;102390.66;;;16.79;100.00
66273;BME280;58450;52.150;4.466;2022-07-12T01:22:09;102394.59;;;16.76;100.00
66273;BME280;58450;52.150;4.466;2022-07-12T01:24:39;102397.72;;;16.73;100.00
66273;BME280;58450;52.150;4.466;2022-07-12T01:27:07;102397.91;;;16.72;100.00
66273;BME280;58450;52.150;4.466;2022-07-12T01:29:35;102410.47;;;16.73;100.00
66273;BME280;58450;52.150;4.466;2022-07-12T01:32:04;102407.09;;;16.71;100.00
66273;BME280;58450;52.150;4.466;2022-07-12T01:34:47;102407.47;;;16.67;100.00
66273;BME280;58450;52.150;4.466;2022-07-12T01:37:16;102410.56;;;16.64;100.00
66273;BME280;58450;52.150;4.466;2022-07-12T01:39:47;102420.22;;;16.67;100.00
66273;BME280;58450;52.150;4.466;2022-07-12T01:42:16;102416.66;;;16.66;100.00
66273;BME280;58450;52.150;4.466;2022-07-12T01:44:43;102427.72;;;16.65;100.00
66273;BME280;58450;52.150;4.466;2022-07-12T01:47:11;102432.31;;;16.64;100.00
66273;BME280;58450;52.150;4.466;2022-07-12T01:49:39;102430.63;;;16.63;100.00
66273;BME280;58450;52.150;4.466;2022-07-12T01:52:06;102426.03;;;16.64;100.00
66273;BME280;58450;52.150;4.466;2022-07-12T01:54:34;102430.63;;;16.63;100.00
66273;BME280;58450;52.150;4.466;2022-07-12T01:57:04;102427.72;;;16.65;100.00
66273;BME280;58450;52.150;4.466;2022-07-12T01:59:31;102428.56;;;16.65;100.00
66273;BME280;58450;52.150;4.466;2022-07-12T02:02:00;102434.19;;;16.64;100.00
66273;BME280;58450;52.150;4.466;2022-07-12T02:04:27;102430.63;;;16.63;100.00
66273;BME280;58450;52.150;4.466;2022-07-12T02:06:55;102438.97;;;16.62;100.00
66273;BME280;58450;52.150;4.466;2022-07-12T02:09:23;102442.25;;;16.57;100.00
66273;BME280;58450;52.150;4.466;2022-07-12T02:11:51;102436.34;;;16.53;100.00
66273;BME280;58450;52.150;4.466;2022-07-12T02:14:20;102432.97;;;16.51;100.00
66273;BME280;58450;52.150;4.466;2022-07-12T02:16:47;102432.31;;;16.49;100.00
66273;BME280;58450;52.150;4.466;2022-07-12T02:19:15;102421.16;;;16.44;100.00
66273;BME280;58450;52.150;4.466;2022-07-12T02:21:43;102418.34;;;16.37;100.00
66273;BME280;58450;52.150;4.466;2022-07-12T02:24:10;102416.22;;;16.33;100.00
66273;BME280;58450;52.150;4.466;2022-07-12T02:26:38;102413.00;;;16.29;100.00
66273;BME280;58450;52.150;4.466;2022-07-12T02:29:06;102414.91;;;16.29;100.00
66273;BME280;58450;52.150;4.466;2022-07-12T02:31:35;102416.69;;;16.21;100.00
66273;BME280;58450;52.150;4.466;2022-07-12T02:34:02;102422.47;;;16.18;100.00
66273;BME280;58450;52.150;4.466;2022-07-12T02:36:30;102424.03;;;16.13;100.00
66273;BME280;58450;52.150;4.466;2022-07-12T02:38:57;102418.44;;;16.14;100.00
66273;BME280;58450;52.150;4.466;2022-07-12T02:41:28;102416.56;;;16.15;100.00
66273;BME280;58450;52.150;4.466;2022-07-12T02:43:56;102420.78;;;16.17;100.00
66273;BME280;58450;52.150;4.466;2022-07-12T02:46:24;102422.47;;;16.18;100.00
66273;BME280;58450;52.150;4.466;2022-07-12T02:48:54;102425.19;;;16.18;100.00
66273;BME280;58450;52.150;4.466;2022-07-12T02:51:21;102431.00;;;16.15;100.00
66273;BME280;58450;52.150;4.466;2022-07-12T02:53:48;102423.38;;;16.10;100.00
66273;BME280;58450;52.150;4.466;2022-07-12T02:56:16;102425.66;;;16.07;100.00
66273;BME280;58450;52.150;4.466;2022-07-12T02:58:43;102428.53;;;16.05;100.00
66273;BME280;58450;52.150;4.466;2022-07-12T03:01:11;102427.03;;;16.03;100.00
66273;BME280;58450;52.150;4.466;2022-07-12T03:03:39;102428.72;;;16.04;100.00
66273;BME280;58450;52.150;4.466;2022-07-12T03:06:08;102429.75;;;16.03;100.00
66273;BME280;58450;52.150;4.466;2022-07-12T03:08:36;102428.91;;;16.02;100.00
66273;BME280;58450;52.150;4.466;2022-07-12T03:11:03;102430.59;;;16.03;100.00
66273;BME280;58450;52.150;4.466;2022-07-12T03:13:31;102435.19;;;16.03;100.00
66273;BME280;58450;52.150;4.466;2022-07-12T03:15:58;102434.16;;;16.04;100.00
66273;BME280;58450;52.150;4.466;2022-07-12T03:18:26;102436.88;;;16.04;100.00
66273;BME280;58450;52.150;4.466;2022-07-12T03:20:54;102432.94;;;16.06;100.00
66273;BME280;58450;52.150;4.466;2022-07-12T03:23:23;102430.22;;;16.06;100.00
66273;BME280;58450;52.150;4.466;2022-07-12T03:25:50;102425.81;;;16.05;100.00
66273;BME280;58450;52.150;4.466;2022-07-12T03:28:18;102433.13;;;16.05;100.00
66273;BME280;58450;52.150;4.466;2022-07-12T03:30:46;102433.13;;;16.05;100.00
66273;BME280;58450;52.150;4.466;2022-07-12T03:33:13;102428.72;;;16.04;100.00
66273;BME280;58450;52.150;4.466;2022-07-12T03:35:40;102431.63;;;16.02;100.00
66273;BME280;58450;52.150;4.466;2022-07-12T03:38:08;102433.22;;;15.97;100.00
66273;BME280;58450;52.150;4.466;2022-07-12T03:40:37;102428.59;;;15.97;100.00
66273;BME280;58450;52.150;4.466;2022-07-12T03:43:04;102438.06;;;16.01;100.00
66273;BME280;58450;52.150;4.466;2022-07-12T03:45:32;102445.09;;;15.95;100.00
66273;BME280;58450;52.150;4.466;2022-07-12T03:48:00;102445.25;;;15.94;100.00
66273;BME280;58450;52.150;4.466;2022-07-12T03:50:27;102442.09;;;15.90;100.00
66273;BME280;58450;52.150;4.466;2022-07-12T03:52:55;102441.88;;;15.92;100.00
66273;BME280;58450;52.150;4.466;2022-07-12T03:55:22;102444.59;;;15.92;100.00
66273;BME280;58450;52.150;4.466;2022-07-12T03:57:51;102441.34;;;15.97;100.00
66273;BME280;58450;52.150;4.466;2022-07-12T04:00:19;102434.53;;;16.01;100.00
66273;BME280;58450;52.150;4.466;2022-07-12T04:02:46;102438.94;;;16.02;100.00
66273;BME280;58450;52.150;4.466;2022-07-12T04:05:13;102433.78;;;16.07;100.00
66273;BME280;58450;52.150;4.466;2022-07-12T04:07:41;102443.25;;;16.11;100.00
66273;BME280;58450;52.150;4.466;2022-07-12T04:10:09;102440.34;;;16.13;100.00
66273;BME280;58450;52.150;4.466;2022-07-12T04:12:36;102445.25;;;16.17;100.00
66273;BME280;58450;52.150;4.466;2022-07-12T04:15:07;102443.63;;;16.23;100.00
66273;BME280;58450;52.150;4.466;2022-07-12T04:17:35;102441.69;;;16.32;100.00
66273;BME280;58450;52.150;4.466;2022-07-12T04:20:04;102442.44;;;16.40;100.00
66273;BME280;58450;52.150;4.466;2022-07-12T04:22:32;102439.81;;;16.47;100.00
66273;BME280;58450;52.150;4.466;2022-07-12T04:24:59;102434.28;;;16.55;100.00
66273;BME280;58450;52.150;4.466;2022-07-12T04:27:27;102437.09;;;16.62;100.00
66273;BME280;58450;52.150;4.466;2022-07-12T04:29:54;102440.28;;;16.66;100.00
66273;BME280;58450;52.150;4.466;2022-07-12T04:32:23;102436.63;;;16.74;100.00
66273;BME280;58450;52.150;4.466;2022-07-12T04:34:51;102448.22;;;16.82;100.00
66273;BME280;58450;52.150;4.466;2022-07-12T04:37:18;102441.94;;;16.82;100.00
66273;BME280;58450;52.150;4.466;2022-07-12T04:39:46;102438.94;;;16.92;100.00
66273;BME280;58450;52.150;4.466;2022-07-12T04:42:13;102441.75;;;16.98;100.00
66273;BME280;58450;52.150;4.466;2022-07-12T04:44:41;102433.31;;;17.08;100.00
66273;BME280;58450;52.150;4.466;2022-07-12T04:47:09;102442.66;;;17.21;100.00
66273;BME280;58450;52.150;4.466;2022-07-12T04:49:38;102448.22;;;17.34;100.00
66273;BME280;58450;52.150;4.466;2022-07-12T04:52:06;102446.22;;;17.43;100.00
66273;BME280;58450;52.150;4.466;2022-07-12T04:54:34;102443.94;;;17.47;100.00
66273;BME280;58450;52.150;4.466;2022-07-12T04:57:01;102437.47;;;17.48;100.00
66273;BME280;58450;52.150;4.466;2022-07-12T04:59:29;102443.88;;;17.40;100.00
66273;BME280;58450;52.150;4.466;2022-07-12T05:01:57;102450.63;;;17.44;100.00
66273;BME280;58450;52.150;4.466;2022-07-12T05:04:24;102440.41;;;17.46;100.00
66273;BME280;58450;52.150;4.466;2022-07-12T05:06:53;102442.53;;;17.51;100.00
66273;BME280;58450;52.150;4.466;2022-07-12T05:09:21;102446.53;;;17.55;100.00
66273;BME280;58450;52.150;4.466;2022-07-12T05:11:49;102448.22;;;17.56;100.00
66273;BME280;58450;52.150;4.466;2022-07-12T05:14:16;102452.25;;;17.60;100.00
66273;BME280;58450;52.150;4.466;2022-07-12T05:16:44;102455.81;;;17.61;100.00
66273;BME280;58450;52.150;4.466;2022-07-12T05:19:11;102466.56;;;17.69;100.00
66273;BME280;58450;52.150;4.466;2022-07-12T05:21:39;102463.53;;;17.79;100.00
66273;BME280;58450;52.150;4.466;2022-07-12T05:24:09;102466.94;;;17.87;100.00
66273;BME280;58450;52.150;4.466;2022-07-12T05:26:37;102462.34;;;17.88;100.00
66273;BME280;58450;52.150;4.466;2022-07-12T05:29:04;102463.69;;;17.99;100.00
66273;BME280;58450;52.150;4.466;2022-07-12T05:31:32;102464.47;;;18.14;100.00
66273;BME280;58450;52.150;4.466;2022-07-12T05:34:00;102471.88;;;18.27;100.00
66273;BME280;58450;52.150;4.466;2022-07-12T05:36:27;102476.38;;;18.42;100.00
66273;BME280;58450;52.150;4.466;2022-07-12T05:38:55;102475.00;;;18.53;100.00
66273;BME280;58450;52.150;4.466;2022-07-12T05:41:24;102475.03;;;18.59;100.00
66273;BME280;58450;52.150;4.466;2022-07-12T05:43:51;102474.00;;;18.67;100.00
66273;BME280;58450;52.150;4.466;2022-07-12T05:46:19;102469.66;;;18.73;100.00
66273;BME280;58450;52.150;4.466;2022-07-12T05:48:46;102471.16;;;18.82;100.00
66273;BME280;58450;52.150;4.466;2022-07-12T05:51:14;102479.19;;;18.90;100.00
66273;BME280;58450;52.150;4.466;2022-07-12T05:53:59;102480.50;;;19.01;100.00
66273;BME280;58450;52.150;4.466;2022-07-12T05:56:28;102471.09;;;19.17;100.00
66273;BME280;58450;52.150;4.466;2022-07-12T05:58:55;102469.91;;;19.33;100.00
66273;BME280;58450;52.150;4.466;2022-07-12T06:01:23;102470.13;;;19.39;100.00
66273;BME280;58450;52.150;4.466;2022-07-12T06:03:50;102466.34;;;19.46;100.00
66273;BME280;58450;52.150;4.466;2022-07-12T06:06:17;102464.66;;;19.52;100.00
66273;BME280;58450;52.150;4.466;2022-07-12T06:08:45;102459.03;;;19.54;100.00
66273;BME280;58450;52.150;4.466;2022-07-12T06:11:12;102466.34;;;19.53;100.00
66273;BME280;58450;52.150;4.466;2022-07-12T06:13:41;102468.06;;;19.61;100.00
66273;BME280;58450;52.150;4.466;2022-07-12T06:16:09;102472.25;;;19.63;100.00
66273;BME280;58450;52.150;4.466;2022-07-12T06:18:37;102480.88;;;19.67;100.00
66273;BME280;58450;52.150;4.466;2022-07-12T06:21:05;102479.63;;;19.70;100.00
66273;BME280;58450;52.150;4.466;2022-07-12T06:23:33;102471.44;;;19.90;100.00
66273;BME280;58450;52.150;4.466;2022-07-12T06:26:00;102469.56;;;20.17;100.00
66273;BME280;58450;52.150;4.466;2022-07-12T06:28:28;102482.97;;;20.46;100.00
66273;BME280;58450;52.150;4.466;2022-07-12T06:30:56;102485.19;;;20.76;100.00
66273;BME280;58450;52.150;4.466;2022-07-12T06:33:24;102475.09;;;20.90;100.00
66273;BME280;58450;52.150;4.466;2022-07-12T06:35:51;102482.13;;;21.11;100.00
66273;BME280;58450;52.150;4.466;2022-07-12T06:38:19;102492.88;;;21.13;100.00
66273;BME280;58450;52.150;4.466;2022-07-12T06:40:46;102493.03;;;21.24;100.00
66273;BME280;58450;52.150;4.466;2022-07-12T06:43:14;102489.16;;;21.39;100.00
66273;BME280;58450;52.150;4.466;2022-07-12T06:45:41;102496.41;;;21.59;100.00
66273;BME280;58450;52.150;4.466;2022-07-12T06:48:10;102495.28;;;21.73;100.00
66273;BME280;58450;52.150;4.466;2022-07-12T06:50:37;102489.94;;;21.85;100.00
66273;BME280;58450;52.150;4.466;2022-07-12T06:53:05;102498.44;;;22.02;100.00
66273;BME280;58450;52.150;4.466;2022-07-12T06:55:32;102488.28;;;22.28;100.00
66273;BME280;58450;52.150;4.466;2022-07-12T06:58:00;102487.59;;;22.33;100.00
66273;BME280;58450;52.150;4.466;2022-07-12T07:00:27;102495.53;;;22.41;100.00
66273;BME280;58450;52.150;4.466;2022-07-12T07:02:54;102492.38;;;22.44;100.00
66273;BME280;58450;52.150;4.466;2022-07-12T07:05:24;102490.31;;;22.58;100.00
66273;BME280;58450;52.150;4.466;2022-07-12T07:07:51;102484.84;;;23.07;100.00
66273;BME280;58450;52.150;4.466;2022-07-12T07:10:19;102486.00;;;23.49;98.46
66273;BME280;58450;52.150;4.466;2022-07-12T07:12:46;102483.13;;;24.10;98.06
66273;BME280;58450;52.150;4.466;2022-07-12T07:15:14;102480.09;;;24.59;95.62
66273;BME280;58450;52.150;4.466;2022-07-12T07:17:42;102484.34;;;23.59;87.33
66273;BME280;58450;52.150;4.466;2022-07-12T07:20:11;102485.28;;;22.92;90.18
66273;BME280;58450;52.150;4.466;2022-07-12T07:22:40;102488.00;;;22.92;92.76
66273;BME280;58450;52.150;4.466;2022-07-12T07:25:08;102484.75;;;22.46;93.13
66273;BME280;58450;52.150;4.466;2022-07-12T07:27:35;102472.38;;;21.61;95.20
66273;BME280;58450;52.150;4.466;2022-07-12T07:30:05;102478.00;;;21.73;98.48
66273;BME280;58450;52.150;4.466;2022-07-12T07:32:51;102476.22;;;21.85;99.33
66273;BME280;58450;52.150;4.466;2022-07-12T07:35:18;102463.31;;;21.92;98.68
66273;BME280;58450;52.150;4.466;2022-07-12T07:37:47;102474.28;;;22.11;97.66
66273;BME280;58450;52.150;4.466;2022-07-12T07:40:15;102487.56;;;21.89;96.66
66273;BME280;58450;52.150;4.466;2022-07-12T07:42:42;102483.50;;;21.66;98.84
66273;BME280;58450;52.150;4.466;2022-07-12T07:45:10;102490.66;;;22.43;98.19
66273;BME280;58450;52.150;4.466;2022-07-12T07:47:44;102493.50;;;23.11;91.53
66273;BME280;58450;52.150;4.466;2022-07-12T07:50:12;102491.88;;;23.52;86.20
66273;BME280;58450;52.150;4.466;2022-07-12T07:52:40;102491.16;;;24.11;82.11
66273;BME280;58450;52.150;4.466;2022-07-12T07:55:08;102495.47;;;24.07;76.75
66273;BME280;58450;52.150;4.466;2022-07-12T07:57:36;102497.91;;;23.73;78.80
66273;BME280;58450;52.150;4.466;2022-07-12T08:00:04;102490.91;;;23.58;77.57
66273;BME280;58450;52.150;4.466;2022-07-12T08:02:34;102493.31;;;23.55;76.87
66273;BME280;58450;52.150;4.466;2022-07-12T08:05:02;102494.28;;;23.60;76.56
66273;BME280;58450;52.150;4.466;2022-07-12T08:07:30;102492.44;;;23.85;76.30
66273;BME280;58450;52.150;4.466;2022-07-12T08:09:57;102490.63;;;24.74;74.62
66273;BME280;58450;52.150;4.466;2022-07-12T08:12:26;102487.88;;;24.86;73.76
66273;BME280;58450;52.150;4.466;2022-07-12T08:14:53;102491.84;;;25.82;68.09
66273;BME280;58450;52.150;4.466;2022-07-12T08:17:21;102493.13;;;25.16;69.40
66273;BME280;58450;52.150;4.466;2022-07-12T08:19:48;102492.00;;;25.29;68.88
66273;BME280;58450;52.150;4.466;2022-07-12T08:22:16;102479.72;;;24.91;70.61
66273;BME280;58450;52.150;4.466;2022-07-12T08:24:43;102475.97;;;25.89;70.19
66273;BME280;58450;52.150;4.466;2022-07-12T08:27:11;102476.78;;;26.07;66.26
66273;BME280;58450;52.150;4.466;2022-07-12T08:29:39;102486.91;;;27.02;64.99
66273;BME280;58450;52.150;4.466;2022-07-12T08:32:07;102487.06;;;27.18;61.29
66273;BME280;58450;52.150;4.466;2022-07-12T08:34:35;102496.47;;;26.72;61.39
66273;BME280;58450;52.150;4.466;2022-07-12T08:37:03;102492.63;;;26.73;63.00
66273;BME280;58450;52.150;4.466;2022-07-12T08:39:31;102479.88;;;26.10;66.28
66273;BME280;58450;52.150;4.466;2022-07-12T08:41:58;102486.25;;;26.50;66.70
66273;BME280;58450;52.150;4.466;2022-07-12T08:44:26;102479.66;;;26.96;63.61
66273;BME280;58450;52.150;4.466;2022-07-12T08:46:55;102477.06;;;27.11;62.01
66273;BME280;58450;52.150;4.466;2022-07-12T08:49:22;102472.25;;;26.57;61.38
66273;BME280;58450;52.150;4.466;2022-07-12T08:51:50;102469.88;;;25.87;65.91
66273;BME280;58450;52.150;4.466;2022-07-12T08:54:17;102466.09;;;26.10;65.66
66273;BME280;58450;52.150;4.466;2022-07-12T08:56:45;102469.69;;;26.50;64.20
66273;BME280;58450;52.150;4.466;2022-07-12T08:59:13;102482.16;;;25.96;65.03
66273;BME280;58450;52.150;4.466;2022-07-12T09:01:44;102488.66;;;25.27;67.64
66273;BME280;58450;52.150;4.466;2022-07-12T09:04:16;102501.53;;;24.33;69.69
66273;BME280;58450;52.150;4.466;2022-07-12T09:06:44;102491.00;;;24.54;71.62
66273;BME280;58450;52.150;4.466;2022-07-12T09:09:25;102499.97;;;23.89;72.45
66273;BME280;58450;52.150;4.466;2022-07-12T09:11:54;102490.25;;;24.82;70.03
66273;BME280;58450;52.150;4.466;2022-07-12T09:14:22;102486.56;;;25.80;66.25
66273;BME280;58450;52.150;4.466;2022-07-12T09:17:00;102487.75;;;26.19;63.92
66273;BME280;58450;52.150;4.466;2022-07-12T09:19:30;102480.47;;;25.78;64.95
66273;BME280;58450;52.150;4.466;2022-07-12T09:21:58;102474.53;;;26.21;62.16
66273;BME280;58450;52.150;4.466;2022-07-12T09:24:27;102480.81;;;26.78;61.36
66273;BME280;58450;52.150;4.466;2022-07-12T09:26:57;102480.16;;;26.48;61.30
66273;BME280;58450;52.150;4.466;2022-07-12T09:29:28;102479.72;;;26.17;61.85
66273;BME280;58450;52.150;4.466;2022-07-12T09:31:56;102489.22;;;26.44;60.24
66273;BME280;58450;52.150;4.466;2022-07-12T09:34:43;102484.19;;;27.07;59.48
66273;BME280;58450;52.150;4.466;2022-07-12T09:37:28;102486.56;;;27.76;55.37
66273;BME280;58450;52.150;4.466;2022-07-12T09:40:08;102471.97;;;28.82;52.55
66273;BME280;58450;52.150;4.466;2022-07-12T09:42:37;102467.97;;;29.52;48.73
66273;BME280;58450;52.150;4.466;2022-07-12T09:45:07;102469.63;;;29.53;48.38
66273;BME280;58450;52.150;4.466;2022-07-12T09:47:36;102462.97;;;29.48;48.20
66273;BME280;58450;52.150;4.466;2022-07-12T09:50:06;102468.56;;;27.78;51.53
66273;BME280;58450;52.150;4.466;2022-07-12T09:52:37;102472.91;;;28.07;52.12
66273;BME280;58450;52.150;4.466;2022-07-12T09:55:07;102477.19;;;27.87;53.84
66273;BME280;58450;52.150;4.466;2022-07-12T09:57:39;102488.69;;;27.68;53.64
66273;BME280;58450;52.150;4.466;2022-07-12T10:00:11;102478.06;;;27.87;53.60
66273;BME280;58450;52.150;4.466;2022-07-12T10:02:41;102484.78;;;28.40;49.23
66273;BME280;58450;52.150;4.466;2022-07-12T10:05:10;102487.13;;;28.64;50.05
66273;BME280;58450;52.150;4.466;2022-07-12T10:07:38;102490.78;;;28.80;48.59
66273;BME280;58450;52.150;4.466;2022-07-12T10:10:08;102484.84;;;28.07;51.73
66273;BME280;58450;52.150;4.466;2022-07-12T10:12:39;102477.03;;;29.05;49.86
66273;BME280;58450;52.150;4.466;2022-07-12T10:15:14;102484.59;;;29.41;47.77
66273;BME280;58450;52.150;4.466;2022-07-12T10:17:51;102486.28;;;29.58;48.61
66273;BME280;58450;52.150;4.466;2022-07-12T10:20:24;102490.69;;;29.38;48.01
66273;BME280;58450;52.150;4.466;2022-07-12T10:22:53;102490.25;;;28.83;46.55
66273;BME280;58450;52.150;4.466;2022-07-12T10:25:31;102493.47;;;29.59;46.03
66273;BME280;58450;52.150;4.466;2022-07-12T10:28:00;102490.31;;;30.43;43.37
66273;BME280;58450;52.150;4.466;2022-07-12T10:30:28;102485.22;;;30.76;42.64
66273;BME280;58450;52.150;4.466;2022-07-12T10:32:58;102501.47;;;30.99;41.24
66273;BME280;58450;52.150;4.466;2022-07-12T10:35:30;102499.50;;;30.33;42.64
66273;BME280;58450;52.150;4.466;2022-07-12T10:38:15;102490.69;;;30.11;40.41
66273;BME280;58450;52.150;4.466;2022-07-12T10:40:49;102493.97;;;30.99;40.09
66273;BME280;58450;52.150;4.466;2022-07-12T10:43:24;102497.75;;;30.53;39.36
66273;BME280;58450;52.150;4.466;2022-07-12T10:46:17;102494.84;;;29.46;41.63
66273;BME280;58450;52.150;4.466;2022-07-12T10:48:49;102481.25;;;29.44;38.29
66273;BME280;58450;52.150;4.466;2022-07-12T10:51:18;102480.97;;;29.77;40.93
66273;BME280;58450;52.150;4.466;2022-07-12T10:53:49;102481.72;;;30.40;41.51
66273;BME280;58450;52.150;4.466;2022-07-12T10:56:19;102472.41;;;31.31;39.00
66273;BME280;58450;52.150;4.466;2022-07-12T10:58:52;102474.81;;;31.72;40.32
66273;BME280;58450;52.150;4.466;2022-07-12T11:01:22;102479.69;;;30.66;39.17
66273;BME280;58450;52.150;4.466;2022-07-12T11:03:53;102478.63;;;30.46;40.74
66273;BME280;58450;52.150;4.466;2022-07-12T11:06:24;102476.53;;;29.91;43.57
66273;BME280;58450;52.150;4.466;2022-07-12T11:08:55;102469.41;;;31.17;40.79
66273;BME280;58450;52.150;4.466;2022-07-12T11:11:25;102478.44;;;31.78;38.00
66273;BME280;58450;52.150;4.466;2022-07-12T11:13:55;102466.25;;;31.34;38.43
66273;BME280;58450;52.150;4.466;2022-07-12T11:16:24;102467.09;;;31.64;38.10
66273;BME280;58450;52.150;4.466;2022-07-12T11:18:53;102467.66;;;30.00;40.78
66273;BME280;58450;52.150;4.466;2022-07-12T11:21:23;102462.19;;;30.55;41.62
66273;BME280;58450;52.150;4.466;2022-07-12T11:23:52;102468.53;;;31.27;41.05
66273;BME280;58450;52.150;4.466;2022-07-12T11:26:20;102466.03;;;31.89;38.88
66273;BME280;58450;52.150;4.466;2022-07-12T11:28:48;102477.00;;;31.46;37.81
66273;BME280;58450;52.150;4.466;2022-07-12T11:31:18;102471.09;;;30.52;40.86
66273;BME280;58450;52.150;4.466;2022-07-12T11:33:48;102471.63;;;30.64;40.26
66273;BME280;58450;52.150;4.466;2022-07-12T11:36:17;102474.03;;;29.64;42.40
66273;BME280;58450;52.150;4.466;2022-07-12T11:38:47;102461.81;;;29.60;41.92
66273;BME280;58450;52.150;4.466;2022-07-12T11:41:14;102464.06;;;30.80;40.37
66273;BME280;58450;52.150;4.466;2022-07-12T11:43:42;102458.00;;;31.18;38.99
66273;BME280;58450;52.150;4.466;2022-07-12T11:46:11;102453.28;;;30.63;39.33
66273;BME280;58450;52.150;4.466;2022-07-12T11:48:41;102456.63;;;30.55;39.22
66273;BME280;58450;52.150;4.466;2022-07-12T11:51:10;102458.22;;;29.44;48.93
66273;BME280;58450;52.150;4.466;2022-07-12T11:53:39;102458.19;;;28.39;53.16
66273;BME280;58450;52.150;4.466;2022-07-12T11:56:09;102447.66;;;28.36;54.19
66273;BME280;58450;52.150;4.466;2022-07-12T11:58:37;102447.31;;;28.96;52.72
66273;BME280;58450;52.150;4.466;2022-07-12T12:01:05;102447.09;;;29.23;52.17
66273;BME280;58450;52.150;4.466;2022-07-12T12:03:46;102444.72;;;30.55;49.18
66273;BME280;58450;52.150;4.466;2022-07-12T12:06:16;102439.72;;;30.62;47.42
66273;BME280;58450;52.150;4.466;2022-07-12T12:08:43;102439.91;;;31.16;46.13
66273;BME280;58450;52.150;4.466;2022-07-12T12:11:12;102434.69;;;30.64;46.42
66273;BME280;58450;52.150;4.466;2022-07-12T12:13:41;102422.34;;;30.20;48.02
66273;BME280;58450;52.150;4.466;2022-07-12T12:16:10;102432.97;;;29.82;46.69
66273;BME280;58450;52.150;4.466;2022-07-12T12:18:38;102428.66;;;30.36;46.62
66273;BME280;58450;52.150;4.466;2022-07-12T12:21:09;102430.19;;;29.71;48.15
66273;BME280;58450;52.150;4.466;2022-07-12T12:23:39;102421.31;;;29.74;46.58
66273;BME280;58450;52.150;4.466;2022-07-12T12:26:13;102428.81;;;29.84;48.06
66273;BME280;58450;52.150;4.466;2022-07-12T12:28:46;102427.03;;;30.30;46.87
66273;BME280;58450;52.150;4.466;2022-07-12T12:31:17;102422.72;;;30.69;46.40
66273;BME280;58450;52.150;4.466;2022-07-12T12:33:46;102428.50;;;29.86;45.59
66273;BME280;58450;52.150;4.466;2022-07-12T12:36:18;102435.75;;;29.30;47.98
66273;BME280;58450;52.150;4.466;2022-07-12T12:38:48;102437.91;;;29.02;50.72
66273;BME280;58450;52.150;4.466;2022-07-12T12:41:18;102433.47;;;28.90;50.16
66273;BME280;58450;52.150;4.466;2022-07-12T12:43:56;102438.28;;;28.42;52.95
66273;BME280;58450;52.150;4.466;2022-07-12T12:46:43;102449.53;;;27.82;56.91
66273;BME280;58450;52.150;4.466;2022-07-12T12:49:11;102450.94;;;26.97;60.92
66273;BME280;58450;52.150;4.466;2022-07-12T12:51:52;102442.47;;;26.37;63.75
66273;BME280;58450;52.150;4.466;2022-07-12T12:54:31;102439.31;;;26.28;63.41